sensor_id;sensor_type;location;lat;lon;timestamp;pressure;altitude;pressure_sealevel;temperature;humidity
77003;BME280;65939;50.060;14.288;2023-09-19T00:00:34;96688.19;;;17.01;99.33
77003;BME280;65939;50.060;14.288;2023-09-19T00:02:36;96679.66;;;16.98;99.54
77003;BME280;65939;50.060;14.288;2023-09-19T00:04:37;96680.09;;;16.95;98.86
77003;BME280;65939;50.060;14.288;2023-09-19T00:06:40;96688.41;;;16.92;99.38
77003;BME280;65939;50.060;14.288;2023-09-19T00:08:41;96692.31;;;16.90;100.00
77003;BME280;65939;50.060;14.288;2023-09-19T00:10:44;96689.66;;;16.90;100.00
77003;BME280;65939;50.060;14.288;2023-09-19T00:12:45;96693.28;;;16.89;99.84
77003;BME280;65939;50.060;14.288;2023-09-19T00:14:46;96687.44;;;16.87;99.99
77003;BME280;65939;50.060;14.288;2023-09-19T00:16:46;96685.00;;;16.85;100.00
77003;BME280;65939;50.060;14.288;2023-09-19T00:18:47;96684.19;;;16.85;100.00
77003;BME280;65939;50.060;14.288;2023-09-19T00:20:50;96690.28;;;16.85;100.00
77003;BME280;65939;50.060;14.288;2023-09-19T00:22:51;96694.16;;;16.83;100.00
77003;BME280;65939;50.060;14.288;2023-09-19T00:24:53;96700.44;;;16.82;100.00
77003;BME280;65939;50.060;14.288;2023-09-19T00:26:54;96695.38;;;16.80;100.00
77003;BME280;65939;50.060;14.288;2023-09-19T00:28:56;96695.38;;;16.80;100.00
77003;BME280;65939;50.060;14.288;2023-09-19T00:30:57;96690.28;;;16.79;99.86
77003;BME280;65939;50.060;14.288;2023-09-19T00:33:00;96687.06;;;16.77;99.88
77003;BME280;65939;50.060;14.288;2023-09-19T00:35:02;96699.22;;;16.78;99.80
77003;BME280;65939;50.060;14.288;2023-09-19T00:37:04;96704.50;;;16.78;99.49
77003;BME280;65939;50.060;14.288;2023-09-19T00:39:06;96698.44;;;16.77;99.78
77003;BME280;65939;50.060;14.288;2023-09-19T00:41:06;96706.56;;;16.75;100.00
77003;BME280;65939;50.060;14.288;2023-09-19T00:43:07;96710.19;;;16.74;99.70
77003;BME280;65939;50.060;14.288;2023-09-19T00:45:09;96707.56;;;16.74;100.00
77003;BME280;65939;50.060;14.288;2023-09-19T00:47:13;96719.09;;;16.73;100.00
77003;BME280;65939;50.060;14.288;2023-09-19T00:49:18;96708.75;;;16.72;100.00
77003;BME280;65939;50.060;14.288;2023-09-19T00:51:21;96704.50;;;16.71;99.88
77003;BME280;65939;50.060;14.288;2023-09-19T00:53:24;96700.84;;;16.72;99.54
77003;BME280;65939;50.060;14.288;2023-09-19T00:55:28;96706.94;;;16.72;100.00
77003;BME280;65939;50.060;14.288;2023-09-19T00:57:30;96709.75;;;16.71;99.51
77003;BME280;65939;50.060;14.288;2023-09-19T00:59:33;96709.19;;;16.69;100.00
77003;BME280;65939;50.060;14.288;2023-09-19T01:01:36;96717.91;;;16.69;100.00
77003;BME280;65939;50.060;14.288;2023-09-19T01:03:41;96705.72;;;16.68;100.00
77003;BME280;65939;50.060;14.288;2023-09-19T01:05:42;96715.44;;;16.68;100.00
77003;BME280;65939;50.060;14.288;2023-09-19T01:07:44;96714.06;;;16.65;99.66
77003;BME280;65939;50.060;14.288;2023-09-19T01:09:45;96715.88;;;16.65;100.00
77003;BME280;65939;50.060;14.288;2023-09-19T01:11:49;96715.06;;;16.64;100.00
77003;BME280;65939;50.060;14.288;2023-09-19T01:14:13;96712.66;;;16.63;99.94
77003;BME280;65939;50.060;14.288;2023-09-19T01:18:47;96719.13;;;16.60;99.66
77003;BME280;65939;50.060;14.288;2023-09-19T01:21:11;96725.22;;;16.61;99.67
77003;BME280;65939;50.060;14.288;2023-09-19T01:23:35;96719.75;;;16.62;99.63
77003;BME280;65939;50.060;14.288;2023-09-19T01:26:05;96726.63;;;16.63;99.24
77003;BME280;65939;50.060;14.288;2023-09-19T01:30:57;96722.56;;;16.67;99.33
77003;BME280;65939;50.060;14.288;2023-09-19T01:32:59;96721.53;;;16.68;99.04
77003;BME280;65939;50.060;14.288;2023-09-19T01:35:00;96723.97;;;16.70;100.00
77003;BME280;65939;50.060;14.288;2023-09-19T01:37:05;96721.13;;;16.71;100.00
77003;BME280;65939;50.060;14.288;2023-09-19T01:39:08;96725.41;;;16.72;99.45
77003;BME280;65939;50.060;14.288;2023-09-19T01:41:17;96726.19;;;16.73;100.00
77003;BME280;65939;50.060;14.288;2023-09-19T01:43:36;96721.72;;;16.73;100.00
77003;BME280;65939;50.060;14.288;2023-09-19T01:47:52;96720.72;;;16.74;99.86
77003;BME280;65939;50.060;14.288;2023-09-19T01:52:14;96725.00;;;16.75;99.52
77003;BME280;65939;50.060;14.288;2023-09-19T01:54:26;96724.78;;;16.77;100.00
77003;BME280;65939;50.060;14.288;2023-09-19T01:58:59;96726.22;;;16.80;100.00
77003;BME280;65939;50.060;14.288;2023-09-19T02:01:05;96727.59;;;16.82;99.41
77003;BME280;65939;50.060;14.288;2023-09-19T02:03:11;96729.00;;;16.85;99.44
77003;BME280;65939;50.060;14.288;2023-09-19T02:05:13;96728.81;;;16.86;98.77
77003;BME280;65939;50.060;14.288;2023-09-19T02:07:14;96725.16;;;16.87;99.02
77003;BME280;65939;50.060;14.288;2023-09-19T02:09:17;96719.66;;;16.89;99.02
77003;BME280;65939;50.060;14.288;2023-09-19T02:11:17;96714.19;;;16.90;99.45
77003;BME280;65939;50.060;14.288;2023-09-19T02:13:19;96715.59;;;16.93;99.80
77003;BME280;65939;50.060;14.288;2023-09-19T02:15:21;96716.41;;;16.93;99.45
77003;BME280;65939;50.060;14.288;2023-09-19T02:17:22;96709.09;;;16.95;98.70
77003;BME280;65939;50.060;14.288;2023-09-19T02:19:26;96710.50;;;16.98;99.18
77003;BME280;65939;50.060;14.288;2023-09-19T02:21:27;96709.47;;;16.99;98.72
77003;BME280;65939;50.060;14.288;2023-09-19T02:23:30;96713.72;;;17.00;98.40
77003;BME280;65939;50.060;14.288;2023-09-19T02:25:31;96710.09;;;17.01;98.57
77003;BME280;65939;50.060;14.288;2023-09-19T02:27:32;96718.81;;;17.02;98.76
77003;BME280;65939;50.060;14.288;2023-09-19T02:29:33;96716.97;;;17.02;98.94
77003;BME280;65939;50.060;14.288;2023-09-19T02:31:35;96707.22;;;17.03;98.30
77003;BME280;65939;50.060;14.288;2023-09-19T02:33:35;96704.59;;;17.03;98.04
77003;BME280;65939;50.060;14.288;2023-09-19T02:35:37;96706.00;;;17.05;97.66
77003;BME280;65939;50.060;14.288;2023-09-19T02:37:38;96712.69;;;17.08;97.48
77003;BME280;65939;50.060;14.288;2023-09-19T02:39:39;96704.56;;;17.09;97.78
77003;BME280;65939;50.060;14.288;2023-09-19T02:41:39;96706.41;;;17.09;97.79
77003;BME280;65939;50.060;14.288;2023-09-19T02:43:41;96702.72;;;17.10;97.88
77003;BME280;65939;50.060;14.288;2023-09-19T02:45:43;96705.38;;;17.10;97.53
77003;BME280;65939;50.060;14.288;2023-09-19T02:47:47;96706.78;;;17.12;97.92
77003;BME280;65939;50.060;14.288;2023-09-19T02:49:48;96710.22;;;17.13;98.07
77003;BME280;65939;50.060;14.288;2023-09-19T02:51:48;96709.19;;;17.14;97.22
77003;BME280;65939;50.060;14.288;2023-09-19T02:53:50;96697.03;;;17.13;97.99
77003;BME280;65939;50.060;14.288;2023-09-19T02:55:53;96696.22;;;17.12;97.78
77003;BME280;65939;50.060;14.288;2023-09-19T02:57:54;96694.41;;;17.13;97.39
77003;BME280;65939;50.060;14.288;2023-09-19T02:59:57;96692.38;;;17.15;97.46
77003;BME280;65939;50.060;14.288;2023-09-19T03:01:58;96685.44;;;17.14;96.97
77003;BME280;65939;50.060;14.288;2023-09-19T03:04:00;96700.69;;;17.12;97.53
77003;BME280;65939;50.060;14.288;2023-09-19T03:06:02;96687.72;;;17.10;97.01
77003;BME280;65939;50.060;14.288;2023-09-19T03:08:04;96684.50;;;17.08;97.81
77003;BME280;65939;50.060;14.288;2023-09-19T03:10:09;96689.97;;;17.07;96.81
77003;BME280;65939;50.060;14.288;2023-09-19T03:12:10;96692.81;;;17.05;97.39
77003;BME280;65939;50.060;14.288;2023-09-19T03:14:11;96688.56;;;17.04;97.27
77003;BME280;65939;50.060;14.288;2023-09-19T03:16:13;96691.22;;;17.04;98.40
77003;BME280;65939;50.060;14.288;2023-09-19T03:18:15;96694.28;;;17.01;97.63
77003;BME280;65939;50.060;14.288;2023-09-19T03:20:16;96694.28;;;17.01;98.25
77003;BME280;65939;50.060;14.288;2023-09-19T03:22:17;96697.09;;;16.99;97.79
77003;BME280;65939;50.060;14.288;2023-09-19T03:24:18;96693.66;;;16.99;98.46
77003;BME280;65939;50.060;14.288;2023-09-19T03:26:18;96699.16;;;16.97;98.24
77003;BME280;65939;50.060;14.288;2023-09-19T03:28:20;96687.81;;;16.97;97.68
77003;BME280;65939;50.060;14.288;2023-09-19T03:30:22;96687.19;;;16.95;98.14
77003;BME280;65939;50.060;14.288;2023-09-19T03:32:22;96685.78;;;16.92;98.74
77003;BME280;65939;50.060;14.288;2023-09-19T03:34:23;96688.63;;;16.91;98.53
77003;BME280;65939;50.060;14.288;2023-09-19T03:36:23;96687.22;;;16.88;99.15
77003;BME280;65939;50.060;14.288;2023-09-19T03:38:25;96685.38;;;16.89;98.42
77003;BME280;65939;50.060;14.288;2023-09-19T03:40:26;96684.19;;;16.85;99.13
77003;BME280;65939;50.060;14.288;2023-09-19T03:42:26;96686.25;;;16.83;98.96
77003;BME280;65939;50.060;14.288;2023-09-19T03:44:27;96688.28;;;16.81;99.32
77003;BME280;65939;50.060;14.288;2023-09-19T03:46:28;96692.75;;;16.80;98.67
77003;BME280;65939;50.060;14.288;2023-09-19T03:48:29;96690.28;;;16.79;99.25
77003;BME280;65939;50.060;14.288;2023-09-19T03:50:30;96694.97;;;16.77;99.36
77003;BME280;65939;50.060;14.288;2023-09-19T03:52:30;96702.09;;;16.76;99.94
77003;BME280;65939;50.060;14.288;2023-09-19T03:54:31;96695.19;;;16.75;99.66
77003;BME280;65939;50.060;14.288;2023-09-19T03:56:32;96699.66;;;16.74;99.02
77003;BME280;65939;50.060;14.288;2023-09-19T03:58:33;96699.84;;;16.73;100.00
77003;BME280;65939;50.060;14.288;2023-09-19T04:00:35;96704.31;;;16.72;99.46
77003;BME280;65939;50.060;14.288;2023-09-19T04:02:36;96703.28;;;16.73;100.00
77003;BME280;65939;50.060;14.288;2023-09-19T04:04:36;96698.41;;;16.70;100.00
77003;BME280;65939;50.060;14.288;2023-09-19T04:06:37;96703.91;;;16.69;100.00
77003;BME280;65939;50.060;14.288;2023-09-19T04:08:38;96712.81;;;16.68;100.00
77003;BME280;65939;50.060;14.288;2023-09-19T04:10:41;96714.66;;;16.67;100.00
77003;BME280;65939;50.060;14.288;2023-09-19T04:12:51;96711.44;;;16.65;100.00
77003;BME280;65939;50.060;14.288;2023-09-19T04:14:53;96719.34;;;16.65;100.00
77003;BME280;65939;50.060;14.288;2023-09-19T04:16:54;96724.59;;;16.65;100.00
77003;BME280;65939;50.060;14.288;2023-09-19T04:18:54;96733.31;;;16.66;100.00
77003;BME280;65939;50.060;14.288;2023-09-19T04:20:55;96727.25;;;16.65;100.00
77003;BME280;65939;50.060;14.288;2023-09-19T04:22:56;96735.16;;;16.65;100.00
77003;BME280;65939;50.060;14.288;2023-09-19T04:24:57;96733.31;;;16.66;100.00
77003;BME280;65939;50.060;14.288;2023-09-19T04:26:57;96731.50;;;16.66;100.00
77003;BME280;65939;50.060;14.288;2023-09-19T04:28:59;96734.13;;;16.66;100.00
77003;BME280;65939;50.060;14.288;2023-09-19T04:31:01;96741.00;;;16.67;100.00
77003;BME280;65939;50.060;14.288;2023-09-19T04:33:03;96743.63;;;16.67;100.00
77003;BME280;65939;50.060;14.288;2023-09-19T04:35:07;96745.25;;;16.68;100.00
77003;BME280;65939;50.060;14.288;2023-09-19T04:37:08;96749.94;;;16.66;100.00
77003;BME280;65939;50.060;14.288;2023-09-19T04:39:09;96748.09;;;16.67;100.00
77003;BME280;65939;50.060;14.288;2023-09-19T04:41:11;96750.75;;;16.67;100.00
77003;BME280;65939;50.060;14.288;2023-09-19T04:43:12;96763.69;;;16.68;100.00
77003;BME280;65939;50.060;14.288;2023-09-19T04:45:12;96770.63;;;16.69;100.00
77003;BME280;65939;50.060;14.288;2023-09-19T04:47:13;96768.97;;;16.68;100.00
77003;BME280;65939;50.060;14.288;2023-09-19T04:49:14;96775.09;;;16.69;100.00
77003;BME280;65939;50.060;14.288;2023-09-19T04:51:14;96777.50;;;16.70;100.00
77003;BME280;65939;50.060;14.288;2023-09-19T04:53:15;96783.81;;;16.69;100.00
77003;BME280;65939;50.060;14.288;2023-09-19T04:55:17;96788.84;;;16.71;100.00
77003;BME280;65939;50.060;14.288;2023-09-19T04:57:19;96796.56;;;16.72;100.00
77003;BME280;65939;50.060;14.288;2023-09-19T04:59:20;96798.19;;;16.73;99.90
77003;BME280;65939;50.060;14.288;2023-09-19T05:01:20;96803.25;;;16.75;99.93
77003;BME280;65939;50.060;14.288;2023-09-19T05:03:23;96808.34;;;16.77;100.00
77003;BME280;65939;50.060;14.288;2023-09-19T05:05:24;96805.09;;;16.74;100.00
77003;BME280;65939;50.060;14.288;2023-09-19T05:07:25;96807.53;;;16.76;100.00
77003;BME280;65939;50.060;14.288;2023-09-19T05:09:26;96804.91;;;16.76;100.00
77003;BME280;65939;50.060;14.288;2023-09-19T05:11:27;96809.97;;;16.78;100.00
77003;BME280;65939;50.060;14.288;2023-09-19T05:13:31;96808.13;;;16.78;100.00
77003;BME280;65939;50.060;14.288;2023-09-19T05:15:32;96807.13;;;16.79;100.00
77003;BME280;65939;50.060;14.288;2023-09-19T05:17:34;96811.38;;;16.80;100.00
77003;BME280;65939;50.060;14.288;2023-09-19T05:19:35;96811.38;;;16.80;99.77
77003;BME280;65939;50.060;14.288;2023-09-19T05:21:37;96818.25;;;16.81;100.00
77003;BME280;65939;50.060;14.288;2023-09-19T05:23:39;96817.06;;;16.84;99.98
77003;BME280;65939;50.060;14.288;2023-09-19T05:25:40;96822.09;;;16.85;99.52
77003;BME280;65939;50.060;14.288;2023-09-19T05:27:40;96822.91;;;16.86;99.20
77003;BME280;65939;50.060;14.288;2023-09-19T05:29:43;96823.31;;;16.89;99.95
77003;BME280;65939;50.060;14.288;2023-09-19T05:31:44;96831.03;;;16.91;100.00
77003;BME280;65939;50.060;14.288;2023-09-19T05:33:45;96834.25;;;16.93;99.66
77003;BME280;65939;50.060;14.288;2023-09-19T05:35:48;96830.63;;;16.94;98.82
77003;BME280;65939;50.060;14.288;2023-09-19T05:37:52;96826.97;;;16.95;99.30
77003;BME280;65939;50.060;14.288;2023-09-19T05:39:53;96823.28;;;16.96;98.92
77003;BME280;65939;50.060;14.288;2023-09-19T05:41:54;96822.28;;;16.97;99.01
77003;BME280;65939;50.060;14.288;2023-09-19T05:43:55;96830.22;;;16.97;99.48
77003;BME280;65939;50.060;14.288;2023-09-19T05:45:56;96830.78;;;16.99;98.99
77003;BME280;65939;50.060;14.288;2023-09-19T05:48:07;96825.13;;;17.02;99.48
77003;BME280;65939;50.060;14.288;2023-09-19T05:50:09;96829.16;;;17.05;98.45
77003;BME280;65939;50.060;14.288;2023-09-19T05:52:10;96831.59;;;17.06;99.04
77003;BME280;65939;50.060;14.288;2023-09-19T05:54:11;96828.53;;;17.09;98.81
77003;BME280;65939;50.060;14.288;2023-09-19T05:56:11;96827.09;;;17.13;98.58
77003;BME280;65939;50.060;14.288;2023-09-19T05:58:14;96837.66;;;17.13;99.43
77003;BME280;65939;50.060;14.288;2023-09-19T06:00:14;96834.59;;;17.16;97.92
77003;BME280;65939;50.060;14.288;2023-09-19T06:02:15;96839.47;;;17.19;98.07
77003;BME280;65939;50.060;14.288;2023-09-19T06:04:16;96844.09;;;17.24;97.74
77003;BME280;65939;50.060;14.288;2023-09-19T06:06:16;96848.97;;;17.27;97.95
77003;BME280;65939;50.060;14.288;2023-09-19T06:08:17;96844.09;;;17.31;98.00
77003;BME280;65939;50.060;14.288;2023-09-19T06:10:18;96851.59;;;17.34;97.83
77003;BME280;65939;50.060;14.288;2023-09-19T06:12:21;96858.69;;;17.33;97.16
77003;BME280;65939;50.060;14.288;2023-09-19T06:14:21;96859.69;;;17.39;98.07
77003;BME280;65939;50.060;14.288;2023-09-19T06:16:24;96860.88;;;17.43;97.65
77003;BME280;65939;50.060;14.288;2023-09-19T06:18:26;96859.47;;;17.47;96.99
77003;BME280;65939;50.060;14.288;2023-09-19T06:20:28;96867.78;;;17.51;96.96
77003;BME280;65939;50.060;14.288;2023-09-19T06:22:28;96872.22;;;17.50;96.15
77003;BME280;65939;50.060;14.288;2023-09-19T06:24:29;96870.78;;;17.54;96.72
77003;BME280;65939;50.060;14.288;2023-09-19T06:26:31;96876.47;;;17.58;96.39
77003;BME280;65939;50.060;14.288;2023-09-19T06:28:32;96886.38;;;17.62;96.08
77003;BME280;65939;50.060;14.288;2023-09-19T06:30:34;96899.38;;;17.64;96.39
77003;BME280;65939;50.060;14.288;2023-09-19T06:32:35;96888.81;;;17.64;96.14
77003;BME280;65939;50.060;14.288;2023-09-19T06:34:36;96894.69;;;17.66;95.44
77003;BME280;65939;50.060;14.288;2023-09-19T06:36:38;96903.00;;;17.69;95.66
77003;BME280;65939;50.060;14.288;2023-09-19T06:38:39;96906.03;;;17.73;96.00
77003;BME280;65939;50.060;14.288;2023-09-19T06:40:41;96895.09;;;17.76;96.00
77003;BME280;65939;50.060;14.288;2023-09-19T06:42:45;96897.91;;;17.81;95.63
77003;BME280;65939;50.060;14.288;2023-09-19T06:44:46;96898.91;;;17.87;94.96
77003;BME280;65939;50.060;14.288;2023-09-19T06:46:47;96897.88;;;17.88;94.12
77003;BME280;65939;50.060;14.288;2023-09-19T06:48:51;96898.06;;;17.93;94.68
77003;BME280;65939;50.060;14.288;2023-09-19T06:50:53;96915.09;;;17.97;94.52
77003;BME280;65939;50.060;14.288;2023-09-19T06:52:56;96912.22;;;17.99;94.31
77003;BME280;65939;50.060;14.288;2023-09-19T06:54:57;96914.06;;;17.98;93.77
77003;BME280;65939;50.060;14.288;2023-09-19T06:56:58;96924.41;;;18.00;94.49
77003;BME280;65939;50.060;14.288;2023-09-19T06:58:59;96927.44;;;18.03;93.91
77003;BME280;65939;50.060;14.288;2023-09-19T07:00:59;96918.53;;;18.04;93.93
77003;BME280;65939;50.060;14.288;2023-09-19T07:03:02;96924.38;;;18.06;93.53
77003;BME280;65939;50.060;14.288;2023-09-19T07:05:04;96923.38;;;18.07;93.44
77003;BME280;65939;50.060;14.288;2023-09-19T07:07:05;96926.78;;;18.14;93.69
77003;BME280;65939;50.060;14.288;2023-09-19T07:09:08;96926.13;;;18.26;94.49
77003;BME280;65939;50.060;14.288;2023-09-19T07:11:08;96932.75;;;18.35;93.25
77003;BME280;65939;50.060;14.288;2023-09-19T07:13:09;96927.41;;;18.41;92.51
77003;BME280;65939;50.060;14.288;2023-09-19T07:15:12;96925.75;;;18.47;92.30
77003;BME280;65939;50.060;14.288;2023-09-19T07:17:13;96930.16;;;18.53;91.60
77003;BME280;65939;50.060;14.288;2023-09-19T07:19:18;96933.00;;;18.58;91.61
77003;BME280;65939;50.060;14.288;2023-09-19T07:21:18;96923.00;;;18.60;91.13
77003;BME280;65939;50.060;14.288;2023-09-19T07:23:20;96923.75;;;18.67;91.99
77003;BME280;65939;50.060;14.288;2023-09-19T07:25:27;96928.81;;;18.76;91.38
77003;BME280;65939;50.060;14.288;2023-09-19T07:27:28;96926.94;;;18.83;90.97
77003;BME280;65939;50.060;14.288;2023-09-19T07:29:29;96931.56;;;18.87;90.92
77003;BME280;65939;50.060;14.288;2023-09-19T07:31:29;96920.56;;;18.90;90.31
77003;BME280;65939;50.060;14.288;2023-09-19T07:33:31;96932.31;;;18.95;89.68
77003;BME280;65939;50.060;14.288;2023-09-19T07:35:32;96943.28;;;18.98;89.94
77003;BME280;65939;50.060;14.288;2023-09-19T07:37:33;96945.50;;;19.01;89.76
77003;BME280;65939;50.060;14.288;2023-09-19T07:39:34;96947.63;;;18.93;89.14
77003;BME280;65939;50.060;14.288;2023-09-19T07:41:35;96940.47;;;18.93;89.63
77003;BME280;65939;50.060;14.288;2023-09-19T07:43:36;96941.28;;;18.94;89.11
77003;BME280;65939;50.060;14.288;2023-09-19T07:45:37;96945.34;;;18.96;89.34
77003;BME280;65939;50.060;14.288;2023-09-19T07:47:38;96943.66;;;19.02;89.39
77003;BME280;65939;50.060;14.288;2023-09-19T07:49:39;96937.13;;;19.04;88.78
77003;BME280;65939;50.060;14.288;2023-09-19T07:51:40;96953.56;;;19.06;87.99
77003;BME280;65939;50.060;14.288;2023-09-19T07:53:41;96952.56;;;19.07;87.99
77003;BME280;65939;50.060;14.288;2023-09-19T07:55:42;96951.53;;;19.08;87.39
77003;BME280;65939;50.060;14.288;2023-09-19T07:57:44;96954.78;;;19.10;88.17
77003;BME280;65939;50.060;14.288;2023-09-19T07:59:44;96943.72;;;19.13;87.99
77003;BME280;65939;50.060;14.288;2023-09-19T08:01:46;96951.41;;;19.22;87.73
77003;BME280;65939;50.060;14.288;2023-09-19T08:03:48;96950.88;;;19.31;87.70
77003;BME280;65939;50.060;14.288;2023-09-19T08:05:48;96955.13;;;19.39;86.86
77003;BME280;65939;50.060;14.288;2023-09-19T08:07:49;96958.94;;;19.43;86.29
77003;BME280;65939;50.060;14.288;2023-09-19T08:09:50;96955.38;;;19.49;86.91
77003;BME280;65939;50.060;14.288;2023-09-19T08:11:50;96965.09;;;19.55;86.12
77003;BME280;65939;50.060;14.288;2023-09-19T08:13:51;96962.38;;;19.62;86.24
77003;BME280;65939;50.060;14.288;2023-09-19T08:15:53;96968.44;;;19.69;85.61
77003;BME280;65939;50.060;14.288;2023-09-19T08:17:53;96972.34;;;19.67;84.78
77003;BME280;65939;50.060;14.288;2023-09-19T08:19:56;96977.63;;;19.67;85.11
77003;BME280;65939;50.060;14.288;2023-09-19T08:21:57;96977.19;;;19.70;84.75
77003;BME280;65939;50.060;14.288;2023-09-19T08:23:58;96985.16;;;19.70;84.41
77003;BME280;65939;50.060;14.288;2023-09-19T08:25:59;96982.94;;;19.67;84.14
77003;BME280;65939;50.060;14.288;2023-09-19T08:28:02;96984.56;;;19.68;84.27
77003;BME280;65939;50.060;14.288;2023-09-19T08:30:06;96987.66;;;19.65;83.83
77003;BME280;65939;50.060;14.288;2023-09-19T08:32:07;96981.31;;;19.66;83.69
77003;BME280;65939;50.060;14.288;2023-09-19T08:34:08;96982.72;;;19.68;84.19
77003;BME280;65939;50.060;14.288;2023-09-19T08:36:08;96983.09;;;19.72;84.32
77003;BME280;65939;50.060;14.288;2023-09-19T08:38:10;96976.69;;;19.79;83.37
77003;BME280;65939;50.060;14.288;2023-09-19T08:40:11;96981.69;;;19.88;83.38
77003;BME280;65939;50.060;14.288;2023-09-19T08:42:13;96978.97;;;19.94;83.69
77003;BME280;65939;50.060;14.288;2023-09-19T08:44:14;96988.81;;;20.05;83.34
77003;BME280;65939;50.060;14.288;2023-09-19T08:46:16;96990.47;;;20.18;83.28
77003;BME280;65939;50.060;14.288;2023-09-19T08:48:23;96987.16;;;20.23;82.45
77003;BME280;65939;50.060;14.288;2023-09-19T08:50:28;96990.41;;;20.25;81.40
77003;BME280;65939;50.060;14.288;2023-09-19T08:52:38;96998.03;;;20.33;81.51
77003;BME280;65939;50.060;14.288;2023-09-19T08:54:41;96992.28;;;20.36;81.82
77003;BME280;65939;50.060;14.288;2023-09-19T08:56:45;96992.31;;;20.48;81.69
77003;BME280;65939;50.060;14.288;2023-09-19T08:58:51;96998.59;;;20.53;81.02
77003;BME280;65939;50.060;14.288;2023-09-19T09:00:54;96999.75;;;20.58;80.99
77003;BME280;65939;50.060;14.288;2023-09-19T09:02:57;97009.34;;;20.70;80.62
77003;BME280;65939;50.060;14.288;2023-09-19T09:05:00;97003.16;;;20.88;80.10
77003;BME280;65939;50.060;14.288;2023-09-19T09:07:02;97000.56;;;21.12;81.47
77003;BME280;65939;50.060;14.288;2023-09-19T09:09:04;97008.56;;;21.35;79.54
77003;BME280;65939;50.060;14.288;2023-09-19T09:11:06;97002.91;;;21.43;79.08
77003;BME280;65939;50.060;14.288;2023-09-19T09:13:09;97000.13;;;21.50;78.39
77003;BME280;65939;50.060;14.288;2023-09-19T09:15:10;97003.25;;;21.47;77.14
77003;BME280;65939;50.060;14.288;2023-09-19T09:17:13;97001.75;;;21.39;77.32
77003;BME280;65939;50.060;14.288;2023-09-19T09:19:14;97007.53;;;21.36;77.42
77003;BME280;65939;50.060;14.288;2023-09-19T09:21:15;97001.63;;;21.34;78.10
77003;BME280;65939;50.060;14.288;2023-09-19T09:23:16;97006.34;;;21.32;77.12
77003;BME280;65939;50.060;14.288;2023-09-19T09:25:17;97008.56;;;21.35;76.70
77003;BME280;65939;50.060;14.288;2023-09-19T09:27:19;97001.28;;;21.42;77.17
77003;BME280;65939;50.060;14.288;2023-09-19T09:29:47;97010.50;;;21.51;76.16
77003;BME280;65939;50.060;14.288;2023-09-19T09:31:51;97005.56;;;21.67;77.11
77003;BME280;65939;50.060;14.288;2023-09-19T09:33:53;97005.88;;;21.82;76.75
77003;BME280;65939;50.060;14.288;2023-09-19T09:35:58;97013.00;;;21.93;76.00
77003;BME280;65939;50.060;14.288;2023-09-19T09:38:03;97005.38;;;21.97;74.97
77003;BME280;65939;50.060;14.288;2023-09-19T09:40:08;97000.63;;;21.99;74.48
77003;BME280;65939;50.060;14.288;2023-09-19T09:42:35;96989.41;;;21.97;73.68
77003;BME280;65939;50.060;14.288;2023-09-19T09:44:36;96998.91;;;21.93;74.04
77003;BME280;65939;50.060;14.288;2023-09-19T09:46:42;96982.91;;;22.05;74.95
77003;BME280;65939;50.060;14.288;2023-09-19T09:49:03;96988.19;;;22.28;74.24
77003;BME280;65939;50.060;14.288;2023-09-19T09:52:01;96986.56;;;22.56;73.57
77003;BME280;65939;50.060;14.288;2023-09-19T09:54:13;96991.75;;;22.79;72.92
77003;BME280;65939;50.060;14.288;2023-09-19T09:56:18;96994.69;;;22.94;70.97
77003;BME280;65939;50.060;14.288;2023-09-19T09:58:18;97004.38;;;23.01;69.95
77003;BME280;65939;50.060;14.288;2023-09-19T10:00:19;96992.28;;;23.10;70.03
77003;BME280;65939;50.060;14.288;2023-09-19T10:02:34;97008.50;;;23.25;70.46
77003;BME280;65939;50.060;14.288;2023-09-19T10:06:44;97006.50;;;23.54;68.30
77003;BME280;65939;50.060;14.288;2023-09-19T10:09:17;96997.72;;;23.54;67.50
77003;BME280;65939;50.060;14.288;2023-09-19T10:11:20;96993.94;;;23.50;68.34
77003;BME280;65939;50.060;14.288;2023-09-19T10:13:31;97004.28;;;23.46;67.81
77003;BME280;65939;50.060;14.288;2023-09-19T10:15:34;97019.03;;;23.37;68.90
77003;BME280;65939;50.060;14.288;2023-09-19T10:17:42;97022.78;;;23.36;69.15
77003;BME280;65939;50.060;14.288;2023-09-19T10:19:55;97024.94;;;23.39;68.05
77003;BME280;65939;50.060;14.288;2023-09-19T10:21:58;97020.91;;;23.36;67.40
77003;BME280;65939;50.060;14.288;2023-09-19T10:24:03;97015.03;;;23.17;67.36
77003;BME280;65939;50.060;14.288;2023-09-19T10:26:08;97017.63;;;23.12;67.97
77003;BME280;65939;50.060;14.288;2023-09-19T10:28:11;97018.75;;;23.16;66.40
77003;BME280;65939;50.060;14.288;2023-09-19T10:30:14;97010.94;;;23.27;65.34
77003;BME280;65939;50.060;14.288;2023-09-19T10:32:16;97011.72;;;23.27;65.10
77003;BME280;65939;50.060;14.288;2023-09-19T10:34:21;97010.50;;;23.35;63.36
77003;BME280;65939;50.060;14.288;2023-09-19T10:36:26;97008.16;;;23.38;62.59
77003;BME280;65939;50.060;14.288;2023-09-19T10:38:33;97007.50;;;23.48;62.78
77003;BME280;65939;50.060;14.288;2023-09-19T10:40:37;97013.16;;;23.52;62.35
77003;BME280;65939;50.060;14.288;2023-09-19T10:42:42;97015.88;;;23.57;61.23
77003;BME280;65939;50.060;14.288;2023-09-19T10:44:51;97017.47;;;23.58;62.15
77003;BME280;65939;50.060;14.288;2023-09-19T10:46:54;97015.31;;;23.55;62.18
77003;BME280;65939;50.060;14.288;2023-09-19T10:48:59;97010.50;;;23.52;61.82
77003;BME280;65939;50.060;14.288;2023-09-19T10:53:06;97001.44;;;23.53;61.57
77003;BME280;65939;50.060;14.288;2023-09-19T10:55:16;97005.28;;;23.62;61.67
77003;BME280;65939;50.060;14.288;2023-09-19T10:57:22;97006.50;;;23.71;61.10